createdAt,value
2019-02-19T00:02:14.924Z,18.83
2019-02-19T00:04:45.846Z,19.60
2019-02-19T00:07:16.570Z,18.23
2019-02-19T00:09:48.090Z,18.93
2019-02-19T00:12:21.776Z,19.97
2019-02-19T00:14:52.213Z,19.73
2019-02-19T00:17:23.007Z,18.13
2019-02-19T00:19:53.652Z,18.70
2019-02-19T00:22:24.892Z,19.23
2019-02-19T00:24:55.599Z,18.60
2019-02-19T00:27:26.334Z,18.60
2019-02-19T00:29:57.010Z,17.33
2019-02-19T00:32:27.720Z,17.57
2019-02-19T00:34:58.469Z,16.77
2019-02-19T00:37:29.230Z,16.77
2019-02-19T00:39:59.998Z,16.90
2019-02-19T00:42:30.827Z,16.53
2019-02-19T00:45:02.136Z,16.27
2019-02-19T00:47:34.131Z,16.77
2019-02-19T00:50:05.659Z,15.87
2019-02-19T00:52:37.061Z,15.77
2019-02-19T00:55:12.549Z,17.10
2019-02-19T00:57:44.658Z,15.63
2019-02-19T01:00:15.876Z,16.20
2019-02-19T01:02:46.554Z,15.60
2019-02-19T01:05:17.309Z,16.80
2019-02-19T01:07:48.817Z,15.33
2019-02-19T01:10:19.482Z,16.57
2019-02-19T01:12:50.676Z,15.97
2019-02-19T01:15:25.412Z,15.77
2019-02-19T01:17:53.725Z,15.77
2019-02-19T01:20:24.634Z,15.67
2019-02-19T01:22:55.495Z,15.90
2019-02-19T01:25:26.240Z,15.37
2019-02-19T01:27:57.000Z,15.60
2019-02-19T01:30:27.663Z,15.17
2019-02-19T01:32:58.311Z,14.63
2019-02-19T01:35:29.256Z,14.67
2019-02-19T01:37:59.934Z,15.73
2019-02-19T01:40:30.610Z,14.43
2019-02-19T01:43:01.335Z,16.20
2019-02-19T01:45:34.087Z,15.10
2019-02-19T01:48:04.406Z,15.50
2019-02-19T01:50:35.111Z,14.17
2019-02-19T01:53:05.792Z,14.93
2019-02-19T01:55:36.496Z,14.87
2019-02-19T01:58:07.177Z,15.43
2019-02-19T02:00:38.274Z,16.03
2019-02-19T02:03:08.902Z,15.63
2019-02-19T02:05:40.332Z,15.30
2019-02-19T02:08:11.165Z,15.60
2019-02-19T02:10:42.249Z,14.77
2019-02-19T02:13:12.942Z,14.20
2019-02-19T02:15:45.492Z,14.53
2019-02-19T02:18:16.183Z,14.07
2019-02-19T02:20:46.887Z,14.20
2019-02-19T02:23:17.622Z,14.23
2019-02-19T02:25:48.303Z,14.43
2019-02-19T02:28:19.112Z,15.07
2019-02-19T02:30:51.902Z,15.57
2019-02-19T02:33:22.586Z,14.53
2019-02-19T02:35:53.269Z,14.63
2019-02-19T02:38:23.975Z,15.70
2019-02-19T02:40:55.157Z,13.73
2019-02-19T02:43:25.934Z,14.70
2019-02-19T02:45:56.639Z,14.93
2019-02-19T02:48:27.341Z,14.97
2019-02-19T02:51:00.003Z,14.13
2019-02-19T02:53:31.061Z,14.00
2019-02-19T02:56:01.697Z,14.53
2019-02-19T02:58:32.436Z,15.40
2019-02-19T03:01:03.223Z,14.43
2019-02-19T03:03:34.221Z,13.87
2019-02-19T03:06:30.196Z,13.50
2019-02-19T03:09:00.975Z,14.57
2019-02-19T03:11:33.718Z,14.60
2019-02-19T03:14:04.399Z,14.53
2019-02-19T03:16:35.263Z,13.70
2019-02-19T03:19:05.928Z,14.17
2019-02-19T03:21:36.589Z,14.67
2019-02-19T03:24:07.261Z,14.93
2019-02-19T03:26:38.130Z,14.67
2019-02-19T03:29:10.185Z,14.73
2019-02-19T03:31:40.938Z,14.40
2019-02-19T03:34:11.568Z,15.57
2019-02-19T03:36:43.685Z,13.17
2019-02-19T03:39:14.419Z,13.90
2019-02-19T03:41:46.515Z,15.20
2019-02-19T03:44:17.212Z,15.33
2019-02-19T03:46:48.534Z,13.57
2019-02-19T03:49:19.300Z,14.60
2019-02-19T03:51:51.192Z,14.67
2019-02-19T03:54:21.839Z,14.30
2019-02-19T03:56:52.691Z,13.70
2019-02-19T03:59:23.507Z,13.50
2019-02-19T04:01:54.317Z,15.20
2019-02-19T04:04:24.984Z,14.47
2019-02-19T04:06:55.840Z,14.13
2019-02-19T04:09:26.525Z,14.47
2019-02-19T04:11:57.203Z,13.40
2019-02-19T04:14:27.914Z,13.57
2019-02-19T04:16:58.521Z,14.37
2019-02-19T04:19:29.205Z,15.00
2019-02-19T04:21:59.854Z,14.17
2019-02-19T04:24:30.524Z,13.63
2019-02-19T04:27:01.186Z,13.03
2019-02-19T04:29:31.842Z,13.23
2019-02-19T04:32:02.587Z,13.30
2019-02-19T04:34:33.354Z,14.50
2019-02-19T04:37:04.574Z,13.43
2019-02-19T04:39:36.853Z,19.17
2019-02-19T04:42:07.475Z,34.50
2019-02-19T04:44:38.325Z,28.13
2019-02-19T04:47:09.427Z,23.33
2019-02-19T04:49:40.499Z,35.57
2019-02-19T04:52:12.349Z,74.87
2019-02-19T04:54:43.996Z,154.67
2019-02-19T04:57:15.044Z,129.30
2019-02-19T04:59:45.709Z,90.77
2019-02-19T05:02:16.463Z,31.50
2019-02-19T05:04:47.223Z,18.13
2019-02-19T05:07:18.070Z,56.70
2019-02-19T05:09:50.407Z,49.27
2019-02-19T05:12:21.106Z,62.70
2019-02-19T05:14:52.692Z,17.80
2019-02-19T05:17:34.781Z,23.17
2019-02-19T05:20:16.648Z,21.97
2019-02-19T05:22:59.492Z,17.83
2019-02-19T05:25:41.596Z,20.77
2019-02-19T05:28:12.458Z,19.10
2019-02-19T05:30:44.139Z,18.27
2019-02-19T05:33:14.837Z,19.93
2019-02-19T05:35:45.705Z,25.37
2019-02-19T05:38:16.980Z,19.90
2019-02-19T05:40:48.343Z,24.57
2019-02-19T05:43:19.022Z,21.80
2019-02-19T05:45:51.739Z,18.77
2019-02-19T05:48:22.829Z,18.20
2019-02-19T05:50:53.512Z,16.73
2019-02-19T05:53:24.159Z,15.83
2019-02-19T05:55:54.841Z,14.60
2019-02-19T05:58:25.968Z,15.23
2019-02-19T06:00:56.683Z,15.23
2019-02-19T06:03:27.370Z,15.23
2019-02-19T06:05:58.029Z,19.13
2019-02-19T06:08:28.707Z,18.17
2019-02-19T06:10:59.397Z,22.33
2019-02-19T06:13:30.005Z,22.53
2019-02-19T06:16:00.687Z,22.90
2019-02-19T06:18:31.352Z,16.67
2019-02-19T06:21:02.025Z,14.80
2019-02-19T06:23:32.635Z,15.43
2019-02-19T06:26:03.310Z,15.77
2019-02-19T06:28:34.009Z,13.97
2019-02-19T06:31:04.631Z,14.53
2019-02-19T06:33:36.242Z,14.37
2019-02-19T06:36:06.901Z,14.87
2019-02-19T06:38:37.866Z,15.60
2019-02-19T06:41:08.542Z,14.23
2019-02-19T06:43:39.275Z,15.23
2019-02-19T06:46:09.911Z,14.70
2019-02-19T06:48:41.789Z,13.93
2019-02-19T06:51:12.423Z,15.50
2019-02-19T06:53:43.123Z,14.70
2019-02-19T06:56:13.754Z,14.97
2019-02-19T06:58:44.458Z,14.57
2019-02-19T07:01:15.598Z,13.23
2019-02-19T07:03:56.337Z,13.37
2019-02-19T07:06:27.011Z,14.50
2019-02-19T07:08:57.677Z,13.17
2019-02-19T07:11:29.302Z,14.03
2019-02-19T07:13:59.942Z,14.03
2019-02-19T07:16:30.611Z,14.73
2019-02-19T07:19:01.282Z,13.77
2019-02-19T07:21:31.981Z,14.90
2019-02-19T07:24:04.705Z,13.37
2019-02-19T07:26:34.988Z,13.87
2019-02-19T07:29:05.644Z,14.33
2019-02-19T07:31:36.516Z,13.93
2019-02-19T07:34:07.193Z,13.33
2019-02-19T07:36:38.636Z,14.33
2019-02-19T07:39:09.522Z,14.30
2019-02-19T07:41:40.163Z,12.37
2019-02-19T07:44:10.834Z,13.47
2019-02-19T07:46:41.584Z,13.23
2019-02-19T07:49:12.256Z,13.33
2019-02-19T07:51:43.751Z,12.47
2019-02-19T07:54:14.419Z,13.53
2019-02-19T07:56:45.235Z,13.20
2019-02-19T07:59:15.864Z,13.87
2019-02-19T08:01:46.573Z,12.30
2019-02-19T08:04:17.212Z,12.53
2019-02-19T08:06:48.364Z,13.90
2019-02-19T08:09:18.986Z,13.13
2019-02-19T08:11:49.630Z,13.07
2019-02-19T08:14:20.301Z,12.47
2019-02-19T08:16:50.962Z,13.33
2019-02-19T08:19:21.620Z,13.03
2019-02-19T08:21:53.522Z,14.07
2019-02-19T08:24:24.205Z,12.73
2019-02-19T08:26:55.573Z,11.20
2019-02-19T08:29:26.386Z,12.80
2019-02-19T08:31:57.526Z,11.83
2019-02-19T08:34:28.177Z,12.03
2019-02-19T08:36:59.075Z,13.07
2019-02-19T08:39:29.762Z,11.20
2019-02-19T08:42:00.422Z,12.47
2019-02-19T08:44:31.066Z,13.13
2019-02-19T08:47:01.721Z,12.47
2019-02-19T08:49:32.333Z,12.90
2019-02-19T08:52:03.014Z,12.97
2019-02-19T08:54:33.629Z,11.97
2019-02-19T08:57:04.282Z,13.07
2019-02-19T08:59:34.933Z,11.77
2019-02-19T09:02:05.584Z,11.87
2019-02-19T09:04:36.262Z,12.17
2019-02-19T09:07:06.941Z,13.37
2019-02-19T09:09:37.894Z,11.83
2019-02-19T09:12:08.521Z,12.70
2019-02-19T09:14:39.151Z,10.97
2019-02-19T09:17:09.799Z,12.03
2019-02-19T09:19:40.469Z,11.30
2019-02-19T09:22:11.093Z,11.87
2019-02-19T09:24:42.921Z,11.77
2019-02-19T09:27:13.542Z,12.70
2019-02-19T09:29:44.194Z,11.90
2019-02-19T09:32:14.842Z,11.30
2019-02-19T09:34:45.558Z,11.83
2019-02-19T09:37:16.237Z,12.33
2019-02-19T09:39:47.086Z,11.83
2019-02-19T09:42:17.794Z,11.80
2019-02-19T09:44:48.421Z,12.23
2019-02-19T09:47:19.175Z,12.10
2019-02-19T09:49:49.873Z,11.27
2019-02-19T09:52:20.575Z,12.43
2019-02-19T09:54:51.859Z,12.47
2019-02-19T09:57:22.545Z,12.30
2019-02-19T09:59:53.181Z,13.17
2019-02-19T10:02:23.874Z,13.27
2019-02-19T10:04:54.506Z,13.67
2019-02-19T10:07:25.186Z,14.23
2019-02-19T10:09:55.853Z,14.60
2019-02-19T10:12:26.620Z,15.33
2019-02-19T10:14:57.263Z,16.10
2019-02-19T10:17:27.937Z,17.03
2019-02-19T10:19:58.614Z,16.80
2019-02-19T10:22:29.256Z,16.73
2019-02-19T10:24:59.942Z,18.57
2019-02-19T10:27:30.621Z,17.93
2019-02-19T10:30:01.420Z,17.63
2019-02-19T10:32:32.046Z,17.80
2019-02-19T10:35:02.794Z,18.23
2019-02-19T10:37:33.477Z,18.60
2019-02-19T10:40:04.320Z,17.67
2019-02-19T10:42:34.982Z,18.83
2019-02-19T10:45:05.693Z,18.53
2019-02-19T10:47:36.406Z,18.33
2019-02-19T10:50:07.753Z,19.17
2019-02-19T10:52:38.411Z,19.43
2019-02-19T10:55:09.146Z,19.57
2019-02-19T10:57:40.743Z,21.83
2019-02-19T11:00:16.614Z,21.30
2019-02-19T11:02:47.424Z,21.07
2019-02-19T11:05:18.119Z,21.90
2019-02-19T11:07:48.810Z,21.63
2019-02-19T11:10:19.443Z,21.93
2019-02-19T11:12:51.533Z,22.50
2019-02-19T11:15:22.345Z,21.63
2019-02-19T11:17:53.102Z,21.93
2019-02-19T11:20:23.844Z,21.90
2019-02-19T11:22:54.697Z,20.83
2019-02-19T11:25:25.389Z,20.47
2019-02-19T11:27:56.575Z,20.63
2019-02-19T11:30:27.275Z,20.80
2019-02-19T11:32:57.956Z,19.10
2019-02-19T11:35:28.612Z,20.53
2019-02-19T11:37:59.269Z,18.97
2019-02-19T11:40:29.942Z,18.53
2019-02-19T11:43:00.602Z,19.43
2019-02-19T11:45:31.291Z,18.90
2019-02-19T11:48:01.972Z,19.40
2019-02-19T11:50:32.683Z,18.70
2019-02-19T11:53:03.321Z,18.77
2019-02-19T11:55:33.993Z,19.10
2019-02-19T11:58:04.662Z,20.20
2019-02-19T12:00:38.501Z,18.63
2019-02-19T12:03:09.155Z,18.47
2019-02-19T12:05:39.811Z,17.77
2019-02-19T12:08:10.462Z,18.60
2019-02-19T12:10:41.479Z,17.70
2019-02-19T12:13:12.149Z,18.67
2019-02-19T12:15:43.412Z,18.63
2019-02-19T12:18:14.136Z,16.53
2019-02-19T12:20:44.824Z,18.83
2019-02-19T12:23:15.696Z,18.60
2019-02-19T12:25:46.439Z,19.97
2019-02-19T12:28:17.374Z,19.33
2019-02-19T12:30:48.670Z,18.50
2019-02-19T12:33:19.664Z,17.23
2019-02-19T12:35:50.349Z,18.40
2019-02-19T12:38:21.957Z,19.47
2019-02-19T12:40:52.646Z,17.90
2019-02-19T12:43:23.338Z,18.10
2019-02-19T12:45:54.243Z,18.97
2019-02-19T12:48:24.930Z,19.37
2019-02-19T12:50:55.761Z,20.40
2019-02-19T12:53:26.479Z,18.00
2019-02-19T12:55:57.183Z,17.60
2019-02-19T12:58:27.913Z,17.83
2019-02-19T13:00:58.756Z,18.23
2019-02-19T13:03:29.449Z,17.17
2019-02-19T13:06:00.205Z,18.07
2019-02-19T13:08:30.941Z,16.77
2019-02-19T13:11:01.625Z,17.23
2019-02-19T13:13:32.265Z,16.40
2019-02-19T13:16:02.977Z,16.57
2019-02-19T13:18:33.654Z,15.87
2019-02-19T13:21:04.328Z,15.40
2019-02-19T13:23:35.084Z,16.60
2019-02-19T13:26:05.699Z,14.87
2019-02-19T13:28:36.395Z,16.80
2019-02-19T13:31:07.098Z,15.60
2019-02-19T13:33:38.566Z,15.27
2019-02-19T13:36:11.180Z,15.70
2019-02-19T13:38:41.924Z,15.30
2019-02-19T13:41:12.820Z,14.20
2019-02-19T13:43:43.925Z,15.17
2019-02-19T13:46:14.602Z,15.57
2019-02-19T13:48:45.369Z,13.93
2019-02-19T13:51:16.071Z,15.40
2019-02-19T13:53:57.078Z,14.80
2019-02-19T13:56:27.871Z,13.87
2019-02-19T13:58:58.619Z,15.60
2019-02-19T14:01:29.533Z,16.13
2019-02-19T14:04:00.212Z,15.87
2019-02-19T14:06:31.023Z,15.47
2019-02-19T14:09:01.737Z,14.50
2019-02-19T14:11:33.209Z,15.10
2019-02-19T14:14:22.986Z,15.67
2019-02-19T14:16:59.920Z,14.73
2019-02-19T14:19:56.488Z,16.17
2019-02-19T14:22:40.771Z,14.73
2019-02-19T14:25:29.285Z,15.60
2019-02-19T14:28:18.892Z,14.97
2019-02-19T14:31:20.706Z,15.27
2019-02-19T14:34:13.527Z,13.37
2019-02-19T14:37:03.595Z,15.17
2019-02-19T14:39:56.058Z,13.70
2019-02-19T14:42:47.281Z,13.97
2019-02-19T14:45:36.848Z,14.97
2019-02-19T14:48:25.552Z,14.43
2019-02-19T14:51:22.669Z,13.50
2019-02-19T14:54:06.291Z,13.33
2019-02-19T14:56:54.917Z,13.93
2019-02-19T14:59:44.651Z,14.27
2019-02-19T15:02:28.340Z,13.73
2019-02-19T15:05:24.069Z,14.67
2019-02-19T15:08:12.255Z,13.07
2019-02-19T15:11:10.945Z,13.83
2019-02-19T15:13:59.450Z,13.67
2019-02-19T15:16:57.980Z,13.67
2019-02-19T15:19:47.199Z,13.03
2019-02-19T15:22:36.732Z,14.23
2019-02-19T15:25:26.194Z,13.37
2019-02-19T15:28:21.829Z,13.47
2019-02-19T15:31:17.638Z,13.70
2019-02-19T15:34:05.889Z,13.63
2019-02-19T15:36:54.513Z,13.13
2019-02-19T15:39:47.317Z,13.23
2019-02-19T15:42:35.619Z,14.03
2019-02-19T15:45:25.391Z,13.17
2019-02-19T15:48:17.783Z,12.87
2019-02-19T15:51:19.722Z,13.30
2019-02-19T15:54:09.242Z,13.30
2019-02-19T15:56:56.208Z,12.03
2019-02-19T15:59:52.177Z,13.57
2019-02-19T16:02:29.179Z,13.80
2019-02-19T16:05:17.547Z,13.07
2019-02-19T16:08:13.128Z,12.23
2019-02-19T16:11:11.545Z,11.40
2019-02-19T16:14:01.097Z,10.67
2019-02-19T16:16:51.091Z,10.73
2019-02-19T16:19:32.535Z,10.43
2019-02-19T16:22:12.644Z,10.10
2019-02-19T16:25:02.586Z,10.93
2019-02-19T16:27:53.054Z,10.03
2019-02-19T16:30:36.092Z,9.80
2019-02-19T16:33:25.814Z,10.23
2019-02-19T16:36:05.637Z,10.07
2019-02-19T16:38:48.546Z,10.67
2019-02-19T16:41:47.759Z,10.07
2019-02-19T16:44:43.157Z,9.57
2019-02-19T16:47:36.014Z,9.83
2019-02-19T16:50:21.777Z,9.90
2019-02-19T16:53:14.288Z,8.70
2019-02-19T16:55:56.176Z,9.37
2019-02-19T16:58:42.264Z,9.23
2019-02-19T17:01:23.098Z,9.67
2019-02-19T17:04:13.503Z,8.97
2019-02-19T17:06:54.778Z,9.97
2019-02-19T17:09:50.570Z,9.57
2019-02-19T17:12:55.236Z,9.40
2019-02-19T17:15:43.399Z,9.03
2019-02-19T17:18:36.403Z,9.03
2019-02-19T17:21:32.414Z,9.57
2019-02-19T17:24:22.388Z,9.37
2019-02-19T17:27:04.299Z,9.10
2019-02-19T17:29:59.793Z,9.53
2019-02-19T17:32:53.132Z,9.23
2019-02-19T17:35:44.065Z,8.73
2019-02-19T17:38:28.538Z,9.03
2019-02-19T17:41:24.764Z,8.90
2019-02-19T17:44:17.505Z,10.70
2019-02-19T17:47:09.867Z,9.70
2019-02-19T17:49:58.854Z,9.40
2019-02-19T17:52:45.661Z,9.30
2019-02-19T17:55:33.989Z,9.93
2019-02-19T17:58:35.627Z,9.60
2019-02-19T18:01:11.097Z,9.23
2019-02-19T18:03:49.566Z,9.73
2019-02-19T18:06:39.653Z,9.93
2019-02-19T18:09:17.979Z,9.63
2019-02-19T18:12:03.110Z,10.10
2019-02-19T18:15:04.971Z,10.30
2019-02-19T18:17:54.672Z,9.60
2019-02-19T18:20:25.402Z,10.23
2019-02-19T18:22:56.105Z,9.50
2019-02-19T18:25:26.922Z,8.80
2019-02-19T18:27:58.428Z,9.97
2019-02-19T18:30:29.624Z,10.47
2019-02-19T18:33:00.284Z,9.60
2019-02-19T18:35:30.989Z,9.97
2019-02-19T18:38:01.676Z,10.30
2019-02-19T18:40:33.918Z,9.90
2019-02-19T18:43:11.341Z,9.50
2019-02-19T18:45:50.880Z,10.17
2019-02-19T18:48:21.799Z,10.57
2019-02-19T18:50:58.087Z,33.33
2019-02-19T18:53:24.948Z,11.50
2019-02-19T18:55:55.629Z,10.83
2019-02-19T18:58:27.308Z,10.87
2019-02-19T19:00:58.514Z,9.43
2019-02-19T19:03:29.164Z,14.33
2019-02-19T19:06:00.326Z,11.33
2019-02-19T19:08:30.969Z,9.50
2019-02-19T19:11:01.636Z,12.87
2019-02-19T19:13:32.269Z,16.30
2019-02-19T19:16:03.992Z,11.97
2019-02-19T19:18:34.623Z,15.77
2019-02-19T19:21:12.849Z,12.10
2019-02-19T19:23:45.774Z,7.90
2019-02-19T19:26:16.381Z,8.20
2019-02-19T19:28:47.525Z,6.83
2019-02-19T19:31:18.350Z,7.10
2019-02-19T19:33:49.122Z,7.30
2019-02-19T19:36:19.809Z,6.47
2019-02-19T19:38:50.466Z,8.00
2019-02-19T19:41:21.231Z,5.97
2019-02-19T19:43:52.062Z,5.47
2019-02-19T19:46:22.739Z,5.70
2019-02-19T19:48:54.818Z,5.40
2019-02-19T19:51:26.496Z,5.77
2019-02-19T19:53:57.293Z,5.20
2019-02-19T19:56:29.019Z,5.20
2019-02-19T19:58:59.677Z,4.90
2019-02-19T20:01:30.552Z,4.30
2019-02-19T20:04:01.311Z,4.40
2019-02-19T20:06:32.003Z,5.50
2019-02-19T20:09:02.684Z,3.97
2019-02-19T20:11:34.462Z,4.77
2019-02-19T20:14:05.165Z,4.03
2019-02-19T20:16:36.551Z,4.43
2019-02-19T20:19:07.375Z,4.60
2019-02-19T20:21:38.590Z,4.90
2019-02-19T20:24:09.241Z,4.27
2019-02-19T20:26:39.962Z,3.67
2019-02-19T20:29:10.609Z,4.10
2019-02-19T20:31:41.375Z,4.47
2019-02-19T20:34:14.131Z,4.10
2019-02-19T20:36:44.964Z,5.07
2019-02-19T20:39:15.603Z,4.57
2019-02-19T20:41:48.430Z,4.47
2019-02-19T20:44:19.061Z,5.63
2019-02-19T20:46:50.306Z,5.33
2019-02-19T20:49:22.979Z,5.23
2019-02-19T20:51:54.951Z,6.00
2019-02-19T20:54:26.597Z,4.50
2019-02-19T20:56:59.518Z,5.40
2019-02-19T20:59:30.208Z,4.20
2019-02-19T21:02:00.956Z,4.13
2019-02-19T21:04:31.616Z,4.10
2019-02-19T21:07:03.714Z,3.70
2019-02-19T21:09:43.195Z,3.93
2019-02-19T21:12:06.994Z,4.10
2019-02-19T21:14:39.298Z,3.13
2019-02-19T21:17:11.759Z,3.10
2019-02-19T21:19:42.571Z,3.30
2019-02-19T21:22:14.457Z,3.30
2019-02-19T21:24:45.645Z,3.50
2019-02-19T21:27:16.322Z,3.43
2019-02-19T21:29:47.066Z,3.60
2019-02-19T21:32:18.348Z,4.30
2019-02-19T21:34:49.312Z,3.63
2019-02-19T21:37:20.029Z,3.57
2019-02-19T21:39:51.919Z,3.63
2019-02-19T21:42:22.641Z,3.87
2019-02-19T21:44:54.234Z,4.00
2019-02-19T21:47:24.912Z,3.20
2019-02-19T21:49:55.598Z,3.50
2019-02-19T21:52:28.024Z,4.07
2019-02-19T21:54:59.699Z,3.77
2019-02-19T21:57:30.312Z,3.53
2019-02-19T22:00:00.950Z,4.00
2019-02-19T22:02:31.764Z,3.63
2019-02-19T22:05:02.513Z,4.27
2019-02-19T22:07:33.855Z,3.40
2019-02-19T22:10:05.280Z,4.00
2019-02-19T22:12:36.451Z,4.23
2019-02-19T22:15:07.833Z,3.90
2019-02-19T22:17:38.636Z,4.40
2019-02-19T22:20:19.450Z,4.87
2019-02-19T22:22:50.312Z,4.50
2019-02-19T22:25:21.054Z,4.23
2019-02-19T22:27:52.866Z,5.10
2019-02-19T22:30:23.533Z,4.63
2019-02-19T22:32:57.197Z,4.83
2019-02-19T22:35:28.359Z,5.23
2019-02-19T22:37:59.217Z,4.30
2019-02-19T22:40:29.871Z,4.30
2019-02-19T22:43:02.534Z,4.40
2019-02-19T22:45:33.825Z,4.67
2019-02-19T22:48:05.386Z,4.43
2019-02-19T22:50:36.040Z,4.30
2019-02-19T22:53:25.783Z,4.80
2019-02-19T22:56:02.776Z,4.73
2019-02-19T22:58:33.760Z,4.20
2019-02-19T23:01:14.199Z,4.97
2019-02-19T23:03:45.096Z,4.50
2019-02-19T23:06:15.707Z,5.00
2019-02-19T23:08:46.449Z,4.90
2019-02-19T23:11:17.171Z,4.50
2019-02-19T23:13:47.792Z,4.60
2019-02-19T23:16:18.435Z,4.53
2019-02-19T23:18:49.094Z,4.30
2019-02-19T23:21:19.744Z,4.47
2019-02-19T23:23:50.377Z,4.33
2019-02-19T23:26:21.054Z,4.40
2019-02-19T23:28:51.693Z,4.10
2019-02-19T23:31:22.592Z,4.70
2019-02-19T23:33:53.958Z,4.03
2019-02-19T23:36:35.608Z,4.73
2019-02-19T23:39:08.408Z,5.10
2019-02-19T23:41:39.123Z,4.83
2019-02-19T23:44:09.818Z,4.63
2019-02-19T23:46:40.584Z,4.63
2019-02-19T23:49:11.342Z,5.13
2019-02-19T23:51:43.425Z,5.13
2019-02-19T23:54:14.096Z,5.27
2019-02-19T23:56:44.730Z,5.40
2019-02-19T23:59:15.391Z,5.37
